M I D A S
Marine Information and Data Acquisition System
Tripno 1442 of the Zeeleeuw from 2008-03-20 07:41:39 to 2008-03-20 15:24:56
Back to CruiseResearch ActivitiesStationsMapUnderway DataData graphs

EquipmentUnitsComments
TimeDGPSUTC
LatitudeDGPSDM.mWGS84
LongitudeDGPSDM.mWGS84
SpeedMeteo Stationm/sRelative wind speed
DirectionMeteo StationdegRelative wind direction
TemperatureMeteo Stationdeg CelciusAir temperature
PressureMeteo StationPaAtmospheric pressure
HumidityMeteo Station%Relative humidity
Missing or incorrect values are displayed as -999
Metereological data collected by the RV Zeeleeuw from 2008-03-20 07:38:23 to 2008-03-20 15:35:19
Time Latitude Longitude Speed Direction Temperature Pressure Humidity
2008-03-20 07:39 51°13.681 2°55.897 -999 -999 -999 -999 -999
2008-03-20 07:40 51°13.692 2°55.815 -999 -999 -999 -999 -999
2008-03-20 07:41 51°13.691 2°55.757 -999 -999 -999 -999 -999
2008-03-20 07:42 51°13.69 2°55.744 -999 -999 -999 -999 -999
2008-03-20 07:43 51°13.706 2°55.748 -999 -999 -999 -999 -999
2008-03-20 07:44 51°13.758 2°55.707 -999 -999 -999 -999 -999
2008-03-20 07:45 51°13.864 2°55.604 -999 -999 -999 -999 -999
2008-03-20 07:46 51°13.994 2°55.511 -999 -999 -999 -999 -999
2008-03-20 07:47 51°14.122 2°55.412 -999 -999 -999 -999 -999
2008-03-20 07:48 51°14.242 2°55.289 -999 -999 -999 -999 -999
2008-03-20 07:49 51°14.362 2°55.083 -999 -999 -999 -999 -999
2008-03-20 07:50 51°14.46 2°54.814 -999 -999 -999 -999 -999
2008-03-20 07:51 51°14.539 2°54.508 -999 -999 -999 -999 -999
2008-03-20 07:52 51°14.617 2°54.201 -999 -999 -999 -999 -999
2008-03-20 07:53 51°14.676 2°53.88 -999 -999 -999 -999 -999
2008-03-20 07:54 51°14.715 2°53.556 -999 -999 -999 -999 -999
2008-03-20 07:55 51°14.732 2°53.222 -999 -999 -999 -999 -999
2008-03-20 07:56 51°14.75 2°52.886 -999 -999 -999 -999 -999
2008-03-20 07:57 51°14.76 2°52.546 -999 -999 -999 -999 -999
2008-03-20 07:58 51°14.776 2°52.206 -999 -999 -999 -999 -999
2008-03-20 07:59 51°14.787 2°51.863 -999 -999 -999 -999 -999
2008-03-20 08:00 51°14.799 2°51.517 -999 -999 -999 -999 -999
2008-03-20 08:01 51°14.812 2°51.165 -999 -999 -999 -999 -999
2008-03-20 08:02 51°14.825 2°50.814 -999 -999 -999 -999 -999
2008-03-20 08:03 51°14.838 2°50.461 -999 -999 -999 -999 -999
2008-03-20 08:04 51°14.84 2°50.105 -999 -999 -999 -999 -999
2008-03-20 08:05 51°14.845 2°49.753 -999 -999 -999 -999 -999
2008-03-20 08:06 51°14.85 2°49.406 -999 -999 -999 -999 -999
2008-03-20 08:07 51°14.856 2°49.059 -999 -999 -999 -999 -999
2008-03-20 08:08 51°14.851 2°48.714 -999 -999 -999 -999 -999
2008-03-20 08:09 51°14.832 2°48.376 -999 -999 -999 -999 -999
2008-03-20 08:10 51°14.813 2°48.035 -999 -999 -999 -999 -999
2008-03-20 08:11 51°14.796 2°47.696 -999 -999 -999 -999 -999
2008-03-20 08:12 51°14.777 2°47.355 -999 -999 -999 -999 -999
2008-03-20 08:13 51°14.762 2°47.015 -999 -999 -999 -999 -999
2008-03-20 08:14 51°14.743 2°46.674 -999 -999 -999 -999 -999
2008-03-20 08:15 51°14.726 2°46.335 -999 -999 -999 -999 -999
2008-03-20 08:16 51°14.708 2°45.998 -999 -999 -999 -999 -999
2008-03-20 08:17 51°14.689 2°45.66 -999 -999 -999 -999 -999
2008-03-20 08:18 51°14.672 2°45.316 -999 -999 -999 -999 -999
2008-03-20 08:19 51°14.653 2°44.972 -999 -999 -999 -999 -999
2008-03-20 08:20 51°14.636 2°44.627 -999 -999 -999 -999 -999
2008-03-20 08:21 51°14.615 2°44.282 -999 -999 -999 -999 -999
2008-03-20 08:22 51°14.594 2°43.935 -999 -999 -999 -999 -999
2008-03-20 08:23 51°14.573 2°43.589 -999 -999 -999 -999 -999
2008-03-20 08:24 51°14.551 2°43.24 -999 -999 -999 -999 -999
2008-03-20 08:25 51°14.533 2°42.892 -999 -999 -999 -999 -999
2008-03-20 08:26 51°14.512 2°42.543 -999 -999 -999 -999 -999
2008-03-20 08:27 51°14.49 2°42.202 -999 -999 -999 -999 -999
2008-03-20 08:28 51°14.467 2°41.862 -999 -999 -999 -999 -999
2008-03-20 08:29 51°14.443 2°41.524 -999 -999 -999 -999 -999
2008-03-20 08:30 51°14.419 2°41.185 -999 -999 -999 -999 -999
2008-03-20 08:31 51°14.396 2°40.846 -999 -999 -999 -999 -999
2008-03-20 08:32 51°14.379 2°40.509 -999 -999 -999 -999 -999
2008-03-20 08:33 51°14.361 2°40.177 -999 -999 -999 -999 -999
2008-03-20 08:34 51°14.344 2°39.845 -999 -999 -999 -999 -999
2008-03-20 08:35 51°14.325 2°39.513 -999 -999 -999 -999 -999
2008-03-20 08:36 51°14.305 2°39.181 -999 -999 -999 -999 -999
2008-03-20 08:37 51°14.281 2°38.85 -999 -999 -999 -999 -999
2008-03-20 08:38 51°14.236 2°38.517 -999 -999 -999 -999 -999
2008-03-20 08:39 51°14.188 2°38.182 -999 -999 -999 -999 -999
2008-03-20 08:40 51°14.145 2°37.847 -999 -999 -999 -999 -999
2008-03-20 08:41 51°14.103 2°37.507 -999 -999 -999 -999 -999
2008-03-20 08:42 51°14.064 2°37.167 -999 -999 -999 -999 -999
2008-03-20 08:43 51°14.024 2°36.831 -999 -999 -999 -999 -999
2008-03-20 08:44 51°13.988 2°36.497 -999 -999 -999 -999 -999
2008-03-20 08:45 51°13.952 2°36.167 -999 -999 -999 -999 -999
2008-03-20 08:46 51°13.92 2°35.84 -999 -999 -999 -999 -999
2008-03-20 08:47 51°13.885 2°35.515 -999 -999 -999 -999 -999
2008-03-20 08:48 51°13.852 2°35.193 -999 -999 -999 -999 -999
2008-03-20 08:49 51°13.822 2°34.869 -999 -999 -999 -999 -999
2008-03-20 08:50 51°13.789 2°34.544 -999 -999 -999 -999 -999
2008-03-20 08:51 51°13.752 2°34.215 -999 -999 -999 -999 -999
2008-03-20 08:52 51°13.713 2°33.884 -999 -999 -999 -999 -999
2008-03-20 08:53 51°13.69 2°33.552 -999 -999 -999 -999 -999
2008-03-20 08:54 51°13.687 2°33.215 -999 -999 -999 -999 -999
2008-03-20 08:55 51°13.694 2°32.88 -999 -999 -999 -999 -999
2008-03-20 08:56 51°13.698 2°32.541 -999 -999 -999 -999 -999
2008-03-20 08:57 51°13.702 2°32.2 -999 -999 -999 -999 -999
2008-03-20 08:58 51°13.703 2°31.94 -999 -999 -999 -999 -999
2008-03-20 08:59 51°13.727 2°31.866 -999 -999 -999 -999 -999
2008-03-20 09:00 51°13.731 2°31.868 -999 -999 -999 -999 -999
2008-03-20 09:01 51°13.726 2°31.878 -999 -999 -999 -999 -999
2008-03-20 09:02 51°13.716 2°31.888 -999 -999 -999 -999 -999
2008-03-20 09:03 51°13.702 2°31.899 -999 -999 -999 -999 -999
2008-03-20 09:04 51°13.685 2°31.912 -999 -999 -999 -999 -999
2008-03-20 09:05 51°13.665 2°31.923 -999 -999 -999 -999 -999
2008-03-20 09:06 51°13.644 2°31.934 -999 -999 -999 -999 -999
2008-03-20 09:07 51°13.629 2°31.949 -999 -999 -999 -999 -999
2008-03-20 09:08 51°13.637 2°31.97 -999 -999 -999 -999 -999
2008-03-20 09:09 51°13.654 2°31.987 -999 -999 -999 -999 -999
2008-03-20 09:10 51°13.672 2°32.003 -999 -999 -999 -999 -999
2008-03-20 09:11 51°13.688 2°32.029 -999 -999 -999 -999 -999
2008-03-20 09:12 51°13.701 2°32.061 -999 -999 -999 -999 -999
2008-03-20 09:13 51°13.714 2°32.099 -999 -999 -999 -999 -999
2008-03-20 09:14 51°13.726 2°32.142 -999 -999 -999 -999 -999
2008-03-20 09:15 51°13.737 2°32.182 -999 -999 -999 -999 -999
2008-03-20 09:16 51°13.747 2°32.226 -999 -999 -999 -999 -999
2008-03-20 09:17 51°13.755 2°32.272 -999 -999 -999 -999 -999
2008-03-20 09:18 51°13.76 2°32.322 -999 -999 -999 -999 -999
2008-03-20 09:19 51°13.764 2°32.366 -999 -999 -999 -999 -999
2008-03-20 09:20 51°13.77 2°32.408 -999 -999 -999 -999 -999
2008-03-20 09:21 51°13.77 2°32.436 -999 -999 -999 -999 -999
2008-03-20 09:22 51°13.766 2°32.456 -999 -999 -999 -999 -999
2008-03-20 09:23 51°13.759 2°32.473 -999 -999 -999 -999 -999
2008-03-20 09:24 51°13.75 2°32.489 -999 -999 -999 -999 -999
2008-03-20 09:25 51°13.737 2°32.505 -999 -999 -999 -999 -999
2008-03-20 09:26 51°13.718 2°32.524 -999 -999 -999 -999 -999
2008-03-20 09:27 51°13.699 2°32.543 -999 -999 -999 -999 -999
2008-03-20 09:28 51°13.681 2°32.561 -999 -999 -999 -999 -999
2008-03-20 09:29 51°13.664 2°32.579 -999 -999 -999 -999 -999
2008-03-20 09:30 51°13.65 2°32.597 -999 -999 -999 -999 -999
2008-03-20 09:31 51°13.639 2°32.623 -999 -999 -999 -999 -999
2008-03-20 09:32 51°13.653 2°32.645 -999 -999 -999 -999 -999
2008-03-20 09:33 51°13.684 2°32.634 -999 -999 -999 -999 -999
2008-03-20 09:34 51°13.753 2°32.59 -999 -999 -999 -999 -999
2008-03-20 09:35 51°13.85 2°32.473 -999 -999 -999 -999 -999
2008-03-20 09:36 51°13.956 2°32.339 -999 -999 -999 -999 -999
2008-03-20 09:37 51°14.069 2°32.213 -999 -999 -999 -999 -999
2008-03-20 09:38 51°14.184 2°32.1 -999 -999 -999 -999 -999
2008-03-20 09:39 51°14.268 2°32.024 -999 -999 -999 -999 -999
2008-03-20 09:40 51°14.312 2°32.003 -999 -999 -999 -999 -999
2008-03-20 09:41 51°14.327 2°32.034 -999 -999 -999 -999 -999
2008-03-20 09:42 51°14.334 2°32.079 -999 -999 -999 -999 -999
2008-03-20 09:43 51°14.336 2°32.124 -999 -999 -999 -999 -999
2008-03-20 09:44 51°14.333 2°32.163 -999 -999 -999 -999 -999
2008-03-20 09:45 51°14.331 2°32.205 -999 -999 -999 -999 -999
2008-03-20 09:46 51°14.329 2°32.246 -999 -999 -999 -999 -999
2008-03-20 09:47 51°14.328 2°32.287 -999 -999 -999 -999 -999
2008-03-20 09:48 51°14.329 2°32.33 -999 -999 -999 -999 -999
2008-03-20 09:49 51°14.334 2°32.375 -999 -999 -999 -999 -999
2008-03-20 09:50 51°14.34 2°32.423 -999 -999 -999 -999 -999
2008-03-20 09:51 51°14.345 2°32.471 -999 -999 -999 -999 -999
2008-03-20 09:52 51°14.35 2°32.52 -999 -999 -999 -999 -999
2008-03-20 09:53 51°14.351 2°32.567 -999 -999 -999 -999 -999
2008-03-20 09:54 51°14.352 2°32.613 -999 -999 -999 -999 -999
2008-03-20 09:55 51°14.353 2°32.66 -999 -999 -999 -999 -999
2008-03-20 09:56 51°14.369 2°32.708 -999 -999 -999 -999 -999
2008-03-20 09:57 51°14.438 2°32.667 -999 -999 -999 -999 -999
2008-03-20 09:58 51°14.541 2°32.523 -999 -999 -999 -999 -999
2008-03-20 09:59 51°14.551 2°32.442 -999 -999 -999 -999 -999
2008-03-20 10:00 51°14.547 2°32.412 -999 -999 -999 -999 -999
2008-03-20 10:01 51°14.549 2°32.35 -999 -999 -999 -999 -999
2008-03-20 10:02 51°14.523 2°32.302 -999 -999 -999 -999 -999
2008-03-20 10:03 51°14.493 2°32.255 -999 -999 -999 -999 -999
2008-03-20 10:04 51°14.468 2°32.214 -999 -999 -999 -999 -999
2008-03-20 10:05 51°14.433 2°32.157 -999 -999 -999 -999 -999
2008-03-20 10:06 51°14.391 2°32.095 -999 -999 -999 -999 -999
2008-03-20 10:07 51°14.35 2°32.067 -999 -999 -999 -999 -999
2008-03-20 10:08 51°14.318 2°32.013 -999 -999 -999 -999 -999
2008-03-20 10:09 51°14.285 2°31.948 -999 -999 -999 -999 -999
2008-03-20 10:10 51°14.248 2°31.9 -999 -999 -999 -999 -999
2008-03-20 10:11 51°14.208 2°31.858 -999 -999 -999 -999 -999
2008-03-20 10:12 51°14.165 2°31.821 -999 -999 -999 -999 -999
2008-03-20 10:13 51°14.122 2°31.787 -999 -999 -999 -999 -999
2008-03-20 10:14 51°14.079 2°31.748 -999 -999 -999 -999 -999
2008-03-20 10:15 51°14.037 2°31.707 -999 -999 -999 -999 -999
2008-03-20 10:16 51°13.997 2°31.672 -999 -999 -999 -999 -999
2008-03-20 10:17 51°13.96 2°31.629 -999 -999 -999 -999 -999
2008-03-20 10:18 51°13.924 2°31.586 -999 -999 -999 -999 -999
2008-03-20 10:19 51°13.89 2°31.54 -999 -999 -999 -999 -999
2008-03-20 10:20 51°13.856 2°31.492 -999 -999 -999 -999 -999
2008-03-20 10:21 51°13.824 2°31.443 -999 -999 -999 -999 -999
2008-03-20 10:22 51°13.79 2°31.401 -999 -999 -999 -999 -999
2008-03-20 10:23 51°13.758 2°31.363 -999 -999 -999 -999 -999
2008-03-20 10:24 51°13.726 2°31.319 -999 -999 -999 -999 -999
2008-03-20 10:25 51°13.696 2°31.272 -999 -999 -999 -999 -999
2008-03-20 10:26 51°13.704 2°31.197 -999 -999 -999 -999 -999
2008-03-20 10:27 51°13.765 2°31.169 -999 -999 -999 -999 -999
2008-03-20 10:28 51°13.825 2°31.202 -999 -999 -999 -999 -999
2008-03-20 10:29 51°13.881 2°31.243 -999 -999 -999 -999 -999
2008-03-20 10:30 51°13.936 2°31.288 -999 -999 -999 -999 -999
2008-03-20 10:31 51°13.989 2°31.33 -999 -999 -999 -999 -999
2008-03-20 10:32 51°14.043 2°31.382 -999 -999 -999 -999 -999
2008-03-20 10:33 51°14.097 2°31.431 -999 -999 -999 -999 -999
2008-03-20 10:34 51°14.152 2°31.481 -999 -999 -999 -999 -999
2008-03-20 10:35 51°14.206 2°31.529 -999 -999 -999 -999 -999
2008-03-20 10:36 51°14.262 2°31.58 -999 -999 -999 -999 -999
2008-03-20 10:37 51°14.318 2°31.63 -999 -999 -999 -999 -999
2008-03-20 10:38 51°14.374 2°31.683 -999 -999 -999 -999 -999
2008-03-20 10:39 51°14.429 2°31.749 -999 -999 -999 -999 -999
2008-03-20 10:40 51°14.476 2°31.825 -999 -999 -999 -999 -999
2008-03-20 10:41 51°14.503 2°31.924 -999 -999 -999 -999 -999
2008-03-20 10:42 51°14.514 2°32.024 -999 -999 -999 -999 -999
2008-03-20 10:43 51°14.507 2°32.11 -999 -999 -999 -999 -999
2008-03-20 10:44 51°14.494 2°32.178 -999 -999 -999 -999 -999
2008-03-20 10:45 51°14.484 2°32.234 -999 -999 -999 -999 -999
2008-03-20 10:46 51°14.478 2°32.282 -999 -999 -999 -999 -999
2008-03-20 10:47 51°14.475 2°32.33 -999 -999 -999 -999 -999
2008-03-20 10:48 51°14.476 2°32.379 -999 -999 -999 -999 -999
2008-03-20 10:49 51°14.478 2°32.431 -999 -999 -999 -999 -999
2008-03-20 10:50 51°14.47 2°32.484 -999 -999 -999 -999 -999
2008-03-20 10:51 51°14.447 2°32.573 -999 -999 -999 -999 -999
2008-03-20 10:52 51°14.429 2°32.72 -999 -999 -999 -999 -999
2008-03-20 10:53 51°14.398 2°32.903 -999 -999 -999 -999 -999
2008-03-20 10:54 51°14.368 2°33.098 -999 -999 -999 -999 -999
2008-03-20 10:55 51°14.342 2°33.296 -999 -999 -999 -999 -999
2008-03-20 10:56 51°14.32 2°33.496 -999 -999 -999 -999 -999
2008-03-20 10:57 51°14.301 2°33.701 -999 -999 -999 -999 -999
2008-03-20 10:58 51°14.274 2°33.896 -999 -999 -999 -999 -999
2008-03-20 10:59 51°14.242 2°34.09 -999 -999 -999 -999 -999
2008-03-20 11:00 51°14.208 2°34.287 -999 -999 -999 -999 -999
2008-03-20 11:01 51°14.17 2°34.48 -999 -999 -999 -999 -999
2008-03-20 11:02 51°14.132 2°34.675 -999 -999 -999 -999 -999
2008-03-20 11:03 51°14.094 2°34.87 -999 -999 -999 -999 -999
2008-03-20 11:04 51°14.053 2°35.068 -999 -999 -999 -999 -999
2008-03-20 11:05 51°14.012 2°35.267 -999 -999 -999 -999 -999
2008-03-20 11:06 51°13.969 2°35.466 -999 -999 -999 -999 -999
2008-03-20 11:07 51°13.925 2°35.666 -999 -999 -999 -999 -999
2008-03-20 11:08 51°13.88 2°35.866 -999 -999 -999 -999 -999
2008-03-20 11:09 51°13.836 2°36.064 -999 -999 -999 -999 -999
2008-03-20 11:10 51°13.795 2°36.266 -999 -999 -999 -999 -999
2008-03-20 11:11 51°13.749 2°36.462 -999 -999 -999 -999 -999
2008-03-20 11:12 51°13.699 2°36.653 -999 -999 -999 -999 -999
2008-03-20 11:13 51°13.65 2°36.845 -999 -999 -999 -999 -999
2008-03-20 11:14 51°13.602 2°37.038 -999 -999 -999 -999 -999
2008-03-20 11:15 51°13.547 2°37.221 -999 -999 -999 -999 -999
2008-03-20 11:16 51°13.46 2°37.308 -999 -999 -999 -999 -999
2008-03-20 11:17 51°13.34 2°37.296 -999 -999 -999 -999 -999
2008-03-20 11:18 51°13.191 2°37.255 -999 -999 -999 -999 -999
2008-03-20 11:19 51°13.039 2°37.218 -999 -999 -999 -999 -999
2008-03-20 11:20 51°12.886 2°37.178 -999 -999 -999 -999 -999
2008-03-20 11:21 51°12.731 2°37.138 -999 -999 -999 -999 -999
2008-03-20 11:22 51°12.553 2°37.08 -999 -999 -999 -999 -999
2008-03-20 11:23 51°12.372 2°37.018 -999 -999 -999 -999 -999
2008-03-20 11:24 51°12.189 2°36.952 -999 -999 -999 -999 -999
2008-03-20 11:25 51°12.006 2°36.887 -999 -999 -999 -999 -999
2008-03-20 11:26 51°11.825 2°36.821 -999 -999 -999 -999 -999
2008-03-20 11:27 51°11.644 2°36.753 -999 -999 -999 -999 -999
2008-03-20 11:28 51°11.469 2°36.659 -999 -999 -999 -999 -999
2008-03-20 11:29 51°11.294 2°36.567 -999 -999 -999 -999 -999
2008-03-20 11:30 51°11.123 2°36.465 -999 -999 -999 -999 -999
2008-03-20 11:31 51°10.95 2°36.37 -999 -999 -999 -999 -999
2008-03-20 11:32 51°10.778 2°36.268 -999 -999 -999 -999 -999
2008-03-20 11:33 51°10.607 2°36.162 -999 -999 -999 -999 -999
2008-03-20 11:34 51°10.438 2°36.064 -999 -999 -999 -999 -999
2008-03-20 11:35 51°10.27 2°35.959 -999 -999 -999 -999 -999
2008-03-20 11:36 51°10.1 2°35.859 -999 -999 -999 -999 -999
2008-03-20 11:37 51°9.932 2°35.771 -999 -999 -999 -999 -999
2008-03-20 11:38 51°9.769 2°35.678 -999 -999 -999 -999 -999
2008-03-20 11:39 51°9.62 2°35.594 -999 -999 -999 -999 -999
2008-03-20 11:40 51°9.55 2°35.621 -999 -999 -999 -999 -999
2008-03-20 11:41 51°9.534 2°35.731 -999 -999 -999 -999 -999
2008-03-20 11:42 51°9.558 2°35.84 -999 -999 -999 -999 -999
2008-03-20 11:43 51°9.57 2°35.903 -999 -999 -999 -999 -999
2008-03-20 11:44 51°9.571 2°35.946 -999 -999 -999 -999 -999
2008-03-20 11:45 51°9.579 2°36 -999 -999 -999 -999 -999
2008-03-20 11:46 51°9.589 2°36.057 -999 -999 -999 -999 -999
2008-03-20 11:47 51°9.602 2°36.117 -999 -999 -999 -999 -999
2008-03-20 11:48 51°9.613 2°36.176 -999 -999 -999 -999 -999
2008-03-20 11:49 51°9.625 2°36.235 -999 -999 -999 -999 -999
2008-03-20 11:50 51°9.635 2°36.296 -999 -999 -999 -999 -999
2008-03-20 11:51 51°9.645 2°36.357 -999 -999 -999 -999 -999
2008-03-20 11:52 51°9.653 2°36.416 -999 -999 -999 -999 -999
2008-03-20 11:53 51°9.66 2°36.475 -999 -999 -999 -999 -999
2008-03-20 11:54 51°9.685 2°36.533 -999 -999 -999 -999 -999
2008-03-20 11:55 51°9.729 2°36.543 -999 -999 -999 -999 -999
2008-03-20 11:56 51°9.713 2°36.461 -999 -999 -999 -999 -999
2008-03-20 11:57 51°9.641 2°36.309 -999 -999 -999 -999 -999
2008-03-20 11:58 51°9.562 2°36.133 -999 -999 -999 -999 -999
2008-03-20 11:59 51°9.485 2°35.957 -999 -999 -999 -999 -999
2008-03-20 12:00 51°9.409 2°35.782 -999 -999 -999 -999 -999
2008-03-20 12:01 51°9.333 2°35.609 -999 -999 -999 -999 -999
2008-03-20 12:02 51°9.258 2°35.438 -999 -999 -999 -999 -999
2008-03-20 12:03 51°9.183 2°35.266 -999 -999 -999 -999 -999
2008-03-20 12:04 51°9.105 2°35.095 -999 -999 -999 -999 -999
2008-03-20 12:05 51°9.038 2°34.911 -999 -999 -999 -999 -999
2008-03-20 12:06 51°8.974 2°34.723 -999 -999 -999 -999 -999
2008-03-20 12:07 51°8.912 2°34.538 -999 -999 -999 -999 -999
2008-03-20 12:08 51°8.87 2°34.386 -999 -999 -999 -999 -999
2008-03-20 12:09 51°8.898 2°34.359 -999 -999 -999 -999 -999
2008-03-20 12:10 51°8.922 2°34.411 -999 -999 -999 -999 -999
2008-03-20 12:11 51°8.941 2°34.476 -999 -999 -999 -999 -999
2008-03-20 12:12 51°8.959 2°34.541 -999 -999 -999 -999 -999
2008-03-20 12:13 51°8.978 2°34.604 -999 -999 -999 -999 -999
2008-03-20 12:14 51°8.994 2°34.667 -999 -999 -999 -999 -999
2008-03-20 12:15 51°9.012 2°34.73 -999 -999 -999 -999 -999
2008-03-20 12:16 51°9.028 2°34.792 -999 -999 -999 -999 -999
2008-03-20 12:17 51°9.066 2°34.842 -999 -999 -999 -999 -999
2008-03-20 12:18 51°9.111 2°34.832 -999 -999 -999 -999 -999
2008-03-20 12:19 51°9.144 2°34.827 -999 -999 -999 -999 -999
2008-03-20 12:20 51°9.171 2°34.848 -999 -999 -999 -999 -999
2008-03-20 12:21 51°9.198 2°34.881 -999 -999 -999 -999 -999
2008-03-20 12:22 51°9.219 2°34.912 -999 -999 -999 -999 -999
2008-03-20 12:23 51°9.228 2°34.95 -999 -999 -999 -999 -999
2008-03-20 12:24 51°9.228 2°34.98 -999 -999 -999 -999 -999
2008-03-20 12:25 51°9.22 2°34.989 -999 -999 -999 -999 -999
2008-03-20 12:26 51°9.185 2°35.039 -999 -999 -999 -999 -999
2008-03-20 12:27 51°9.16 2°35.085 -999 -999 -999 -999 -999
2008-03-20 12:28 51°9.123 2°35.099 -999 -999 -999 -999 -999
2008-03-20 12:29 51°9.08 2°35.1 -999 -999 -999 -999 -999
2008-03-20 12:30 51°9.003 2°35.092 -999 -999 -999 -999 -999
2008-03-20 12:31 51°8.97 2°35.108 -999 -999 -999 -999 -999
2008-03-20 12:32 51°8.95 2°35.123 -999 -999 -999 -999 -999
2008-03-20 12:33 51°8.933 2°35.071 -999 -999 -999 -999 -999
2008-03-20 12:34 51°8.943 2°35.007 -999 -999 -999 -999 -999
2008-03-20 12:35 51°8.952 2°34.917 -999 -999 -999 -999 -999
2008-03-20 12:36 51°8.97 2°34.825 -999 -999 -999 -999 -999
2008-03-20 12:37 51°8.975 2°34.754 -999 -999 -999 -999 -999
2008-03-20 12:38 51°8.995 2°34.695 -999 -999 -999 -999 -999
2008-03-20 12:39 51°9.005 2°34.613 -999 -999 -999 -999 -999
2008-03-20 12:40 51°9.007 2°34.544 -999 -999 -999 -999 -999
2008-03-20 12:41 51°8.994 2°34.463 -999 -999 -999 -999 -999
2008-03-20 12:42 51°8.985 2°34.38 -999 -999 -999 -999 -999
2008-03-20 12:43 51°8.976 2°34.31 -999 -999 -999 -999 -999
2008-03-20 12:44 51°8.963 2°34.237 -999 -999 -999 -999 -999
2008-03-20 12:45 51°8.942 2°34.166 -999 -999 -999 -999 -999
2008-03-20 12:46 51°8.918 2°34.099 -999 -999 -999 -999 -999
2008-03-20 12:47 51°8.895 2°34.035 -999 -999 -999 -999 -999
2008-03-20 12:48 51°8.874 2°33.97 -999 -999 -999 -999 -999
2008-03-20 12:49 51°8.852 2°33.904 -999 -999 -999 -999 -999
2008-03-20 12:50 51°8.832 2°33.836 -999 -999 -999 -999 -999
2008-03-20 12:51 51°8.81 2°33.772 -999 -999 -999 -999 -999
2008-03-20 12:52 51°8.789 2°33.706 -999 -999 -999 -999 -999
2008-03-20 12:53 51°8.764 2°33.645 -999 -999 -999 -999 -999
2008-03-20 12:54 51°8.737 2°33.583 -999 -999 -999 -999 -999
2008-03-20 12:55 51°8.709 2°33.521 -999 -999 -999 -999 -999
2008-03-20 12:56 51°8.682 2°33.456 -999 -999 -999 -999 -999
2008-03-20 12:57 51°8.655 2°33.393 -999 -999 -999 -999 -999
2008-03-20 12:58 51°8.63 2°33.327 -999 -999 -999 -999 -999
2008-03-20 12:59 51°8.605 2°33.264 -999 -999 -999 -999 -999
2008-03-20 13:00 51°8.579 2°33.2 -999 -999 -999 -999 -999
2008-03-20 13:01 51°8.554 2°33.136 -999 -999 -999 -999 -999
2008-03-20 13:02 51°8.557 2°33.061 -999 -999 -999 -999 -999
2008-03-20 13:03 51°8.603 2°32.995 -999 -999 -999 -999 -999
2008-03-20 13:04 51°8.653 2°32.969 -999 -999 -999 -999 -999
2008-03-20 13:05 51°8.716 2°32.986 -999 -999 -999 -999 -999
2008-03-20 13:06 51°8.781 2°33.054 -999 -999 -999 -999 -999
2008-03-20 13:07 51°8.818 2°33.149 -999 -999 -999 -999 -999
2008-03-20 13:08 51°8.825 2°33.24 -999 -999 -999 -999 -999
2008-03-20 13:09 51°8.826 2°33.307 -999 -999 -999 -999 -999
2008-03-20 13:10 51°8.831 2°33.364 -999 -999 -999 -999 -999
2008-03-20 13:11 51°8.84 2°33.418 -999 -999 -999 -999 -999
2008-03-20 13:12 51°8.825 2°33.476 -999 -999 -999 -999 -999
2008-03-20 13:13 51°8.768 2°33.55 -999 -999 -999 -999 -999
2008-03-20 13:14 51°8.724 2°33.593 -999 -999 -999 -999 -999
2008-03-20 13:15 51°8.683 2°33.64 -999 -999 -999 -999 -999
2008-03-20 13:16 51°8.638 2°33.708 -999 -999 -999 -999 -999
2008-03-20 13:17 51°8.607 2°33.806 -999 -999 -999 -999 -999
2008-03-20 13:18 51°8.615 2°33.922 -999 -999 -999 -999 -999
2008-03-20 13:19 51°8.645 2°34.015 -999 -999 -999 -999 -999
2008-03-20 13:20 51°8.685 2°34.089 -999 -999 -999 -999 -999
2008-03-20 13:21 51°8.73 2°34.157 -999 -999 -999 -999 -999
2008-03-20 13:22 51°8.773 2°34.227 -999 -999 -999 -999 -999
2008-03-20 13:23 51°8.811 2°34.303 -999 -999 -999 -999 -999
2008-03-20 13:24 51°8.849 2°34.378 -999 -999 -999 -999 -999
2008-03-20 13:25 51°8.883 2°34.46 -999 -999 -999 -999 -999
2008-03-20 13:26 51°8.919 2°34.541 -999 -999 -999 -999 -999
2008-03-20 13:27 51°8.955 2°34.625 -999 -999 -999 -999 -999
2008-03-20 13:28 51°8.99 2°34.707 -999 -999 -999 -999 -999
2008-03-20 13:29 51°9.024 2°34.791 -999 -999 -999 -999 -999
2008-03-20 13:30 51°9.059 2°34.878 -999 -999 -999 -999 -999
2008-03-20 13:31 51°9.094 2°34.964 -999 -999 -999 -999 -999
2008-03-20 13:32 51°9.13 2°35.052 -999 -999 -999 -999 -999
2008-03-20 13:33 51°9.168 2°35.143 -999 -999 -999 -999 -999
2008-03-20 13:34 51°9.204 2°35.235 -999 -999 -999 -999 -999
2008-03-20 13:35 51°9.241 2°35.326 -999 -999 -999 -999 -999
2008-03-20 13:36 51°9.279 2°35.42 -999 -999 -999 -999 -999
2008-03-20 13:37 51°9.318 2°35.512 -999 -999 -999 -999 -999
2008-03-20 13:38 51°9.356 2°35.605 -999 -999 -999 -999 -999
2008-03-20 13:39 51°9.393 2°35.698 -999 -999 -999 -999 -999
2008-03-20 13:40 51°9.431 2°35.79 -999 -999 -999 -999 -999
2008-03-20 13:41 51°9.465 2°35.883 -999 -999 -999 -999 -999
2008-03-20 13:42 51°9.495 2°35.979 -999 -999 -999 -999 -999
2008-03-20 13:43 51°9.522 2°36.077 -999 -999 -999 -999 -999
2008-03-20 13:44 51°9.551 2°36.174 -999 -999 -999 -999 -999
2008-03-20 13:45 51°9.578 2°36.269 -999 -999 -999 -999 -999
2008-03-20 13:46 51°9.606 2°36.364 -999 -999 -999 -999 -999
2008-03-20 13:47 51°9.633 2°36.455 -999 -999 -999 -999 -999
2008-03-20 13:48 51°9.66 2°36.546 -999 -999 -999 -999 -999
2008-03-20 13:49 51°9.687 2°36.633 -999 -999 -999 -999 -999
2008-03-20 13:50 51°9.715 2°36.72 -999 -999 -999 -999 -999
2008-03-20 13:51 51°9.741 2°36.805 -999 -999 -999 -999 -999
2008-03-20 13:52 51°9.769 2°36.893 -999 -999 -999 -999 -999
2008-03-20 13:53 51°9.797 2°36.983 -999 -999 -999 -999 -999
2008-03-20 13:54 51°9.824 2°37.07 -999 -999 -999 -999 -999
2008-03-20 13:55 51°9.853 2°37.158 -999 -999 -999 -999 -999
2008-03-20 13:56 51°9.881 2°37.247 -999 -999 -999 -999 -999
2008-03-20 13:57 51°9.908 2°37.336 -999 -999 -999 -999 -999
2008-03-20 13:58 51°9.938 2°37.428 -999 -999 -999 -999 -999
2008-03-20 13:59 51°9.967 2°37.518 -999 -999 -999 -999 -999
2008-03-20 14:00 51°9.99 2°37.611 -999 -999 -999 -999 -999
2008-03-20 14:01 51°9.995 2°37.701 -999 -999 -999 -999 -999
2008-03-20 14:02 51°9.991 2°37.777 -999 -999 -999 -999 -999
2008-03-20 14:03 51°9.984 2°37.846 -999 -999 -999 -999 -999
2008-03-20 14:04 51°9.964 2°37.921 -999 -999 -999 -999 -999
2008-03-20 14:05 51°9.946 2°37.971 -999 -999 -999 -999 -999
2008-03-20 14:06 51°9.939 2°38.015 -999 -999 -999 -999 -999
2008-03-20 14:07 51°9.939 2°38.057 -999 -999 -999 -999 -999
2008-03-20 14:08 51°9.929 2°38.106 -999 -999 -999 -999 -999
2008-03-20 14:09 51°9.937 2°38.241 -999 -999 -999 -999 -999
2008-03-20 14:10 51°9.994 2°38.496 -999 -999 -999 -999 -999
2008-03-20 14:11 51°10.066 2°38.82 -999 -999 -999 -999 -999
2008-03-20 14:12 51°10.145 2°39.151 -999 -999 -999 -999 -999
2008-03-20 14:13 51°10.22 2°39.481 -999 -999 -999 -999 -999
2008-03-20 14:14 51°10.308 2°39.81 -999 -999 -999 -999 -999
2008-03-20 14:15 51°10.399 2°40.134 -999 -999 -999 -999 -999
2008-03-20 14:16 51°10.49 2°40.461 -999 -999 -999 -999 -999
2008-03-20 14:17 51°10.578 2°40.79 -999 -999 -999 -999 -999
2008-03-20 14:18 51°10.666 2°41.121 -999 -999 -999 -999 -999
2008-03-20 14:19 51°10.754 2°41.454 -999 -999 -999 -999 -999
2008-03-20 14:20 51°10.841 2°41.78 -999 -999 -999 -999 -999
2008-03-20 14:21 51°10.901 2°42.059 -999 -999 -999 -999 -999
2008-03-20 14:22 51°10.834 2°42.139 -999 -999 -999 -999 -999
2008-03-20 14:23 51°10.804 2°42.084 -999 -999 -999 -999 -999
2008-03-20 14:24 51°10.804 2°41.935 -999 -999 -999 -999 -999
2008-03-20 14:25 51°10.798 2°41.74 -999 -999 -999 -999 -999
2008-03-20 14:26 51°10.794 2°41.537 -999 -999 -999 -999 -999
2008-03-20 14:27 51°10.791 2°41.339 -999 -999 -999 -999 -999
2008-03-20 14:28 51°10.79 2°41.145 -999 -999 -999 -999 -999
2008-03-20 14:29 51°10.789 2°40.956 -999 -999 -999 -999 -999
2008-03-20 14:30 51°10.79 2°40.766 -999 -999 -999 -999 -999
2008-03-20 14:31 51°10.791 2°40.574 -999 -999 -999 -999 -999
2008-03-20 14:32 51°10.791 2°40.382 -999 -999 -999 -999 -999
2008-03-20 14:33 51°10.787 2°40.213 -999 -999 -999 -999 -999
2008-03-20 14:34 51°10.737 2°40.21 -999 -999 -999 -999 -999
2008-03-20 14:35 51°10.747 2°40.343 -999 -999 -999 -999 -999
2008-03-20 14:36 51°10.793 2°40.54 -999 -999 -999 -999 -999
2008-03-20 14:37 51°10.841 2°40.869 -999 -999 -999 -999 -999
2008-03-20 14:38 51°10.89 2°41.224 -999 -999 -999 -999 -999
2008-03-20 14:39 51°10.941 2°41.578 -999 -999 -999 -999 -999
2008-03-20 14:40 51°10.99 2°41.927 -999 -999 -999 -999 -999
2008-03-20 14:41 51°11.034 2°42.27 -999 -999 -999 -999 -999
2008-03-20 14:42 51°11.07 2°42.539 -999 -999 -999 -999 -999
2008-03-20 14:43 51°11.107 2°42.825 -999 -999 -999 -999 -999
2008-03-20 14:44 51°11.146 2°43.158 -999 -999 -999 -999 -999
2008-03-20 14:45 51°11.202 2°43.487 -999 -999 -999 -999 -999
2008-03-20 14:46 51°11.265 2°43.811 -999 -999 -999 -999 -999
2008-03-20 14:47 51°11.322 2°44.134 -999 -999 -999 -999 -999
2008-03-20 14:48 51°11.383 2°44.455 -999 -999 -999 -999 -999
2008-03-20 14:49 51°11.442 2°44.774 -999 -999 -999 -999 -999
2008-03-20 14:50 51°11.508 2°45.089 -999 -999 -999 -999 -999
2008-03-20 14:51 51°11.579 2°45.408 -999 -999 -999 -999 -999
2008-03-20 14:52 51°11.65 2°45.726 -999 -999 -999 -999 -999
2008-03-20 14:53 51°11.722 2°46.041 -999 -999 -999 -999 -999
2008-03-20 14:54 51°11.79 2°46.358 -999 -999 -999 -999 -999
2008-03-20 14:55 51°11.864 2°46.668 -999 -999 -999 -999 -999
2008-03-20 14:56 51°11.938 2°46.982 -999 -999 -999 -999 -999
2008-03-20 14:57 51°12.016 2°47.295 -999 -999 -999 -999 -999
2008-03-20 14:58 51°12.107 2°47.598 -999 -999 -999 -999 -999
2008-03-20 14:59 51°12.211 2°47.889 -999 -999 -999 -999 -999
2008-03-20 15:00 51°12.316 2°48.18 -999 -999 -999 -999 -999
2008-03-20 15:01 51°12.424 2°48.47 -999 -999 -999 -999 -999
2008-03-20 15:02 51°12.527 2°48.759 -999 -999 -999 -999 -999
2008-03-20 15:03 51°12.629 2°49.044 -999 -999 -999 -999 -999
2008-03-20 15:04 51°12.743 2°49.326 -999 -999 -999 -999 -999
2008-03-20 15:05 51°12.86 2°49.602 -999 -999 -999 -999 -999
2008-03-20 15:06 51°12.976 2°49.883 -999 -999 -999 -999 -999
2008-03-20 15:07 51°13.094 2°50.159 -999 -999 -999 -999 -999
2008-03-20 15:08 51°13.205 2°50.442 -999 -999 -999 -999 -999
2008-03-20 15:09 51°13.321 2°50.721 -999 -999 -999 -999 -999
2008-03-20 15:10 51°13.438 2°51.002 -999 -999 -999 -999 -999
2008-03-20 15:11 51°13.552 2°51.285 -999 -999 -999 -999 -999
2008-03-20 15:12 51°13.671 2°51.567 -999 -999 -999 -999 -999
2008-03-20 15:13 51°13.789 2°51.85 -999 -999 -999 -999 -999
2008-03-20 15:14 51°13.898 2°52.147 -999 -999 -999 -999 -999
2008-03-20 15:15 51°13.995 2°52.453 -999 -999 -999 -999 -999
2008-03-20 15:16 51°14.077 2°52.76 -999 -999 -999 -999 -999
2008-03-20 15:17 51°14.158 2°53.071 -999 -999 -999 -999 -999
2008-03-20 15:18 51°14.233 2°53.38 -999 -999 -999 -999 -999
2008-03-20 15:19 51°14.289 2°53.646 -999 -999 -999 -999 -999
2008-03-20 15:20 51°14.308 2°53.838 -999 -999 -999 -999 -999
2008-03-20 15:21 51°14.343 2°54.037 -999 -999 -999 -999 -999
2008-03-20 15:22 51°14.393 2°54.341 -999 -999 -999 -999 -999
2008-03-20 15:23 51°14.42 2°54.674 -999 -999 -999 -999 -999
2008-03-20 15:24 51°14.388 2°54.966 -999 -999 -999 -999 -999
2008-03-20 15:25 51°14.292 2°55.202 -999 -999 -999 -999 -999
2008-03-20 15:26 51°14.185 2°55.347 -999 -999 -999 -999 -999
2008-03-20 15:27 51°14.11 2°55.413 -999 -999 -999 -999 -999
2008-03-20 15:28 51°14.038 2°55.47 -999 -999 -999 -999 -999
2008-03-20 15:29 51°13.95 2°55.54 -999 -999 -999 -999 -999
2008-03-20 15:30 51°13.858 2°55.605 -999 -999 -999 -999 -999
2008-03-20 15:31 51°13.776 2°55.677 -999 -999 -999 -999 -999
2008-03-20 15:32 51°13.725 2°55.767 -999 -999 -999 -999 -999
2008-03-20 15:33 51°13.684 2°55.857 -999 -999 -999 -999 -999
2008-03-20 15:34 51°13.668 2°55.933 -999 -999 -999 -999 -999